createdAt,value
2022-10-16T00:02:23.353Z,26.90
2022-10-16T00:05:46.996Z,35.70
2022-10-16T00:08:20.285Z,33.30
2022-10-16T00:14:29.874Z,30.20
2022-10-16T00:17:31.163Z,35.90
2022-10-16T00:20:04.189Z,32.10
2022-10-16T00:22:38.755Z,35.60
2022-10-16T00:25:17.198Z,33.10
2022-10-16T00:27:50.555Z,29.80
2022-10-16T00:30:53.978Z,30.70
2022-10-16T00:33:51.972Z,28.20
2022-10-16T00:36:56.505Z,28.80
2022-10-16T00:42:35.463Z,26.50
2022-10-16T00:45:19.270Z,25.70
2022-10-16T00:51:12.160Z,26.60
2022-10-16T00:57:38.051Z,26.80
2022-10-16T01:00:27.618Z,30.60
2022-10-16T01:06:31.804Z,37.30
2022-10-16T01:09:18.903Z,36.90
2022-10-16T01:12:29.743Z,36.50
2022-10-16T01:18:44.451Z,36.60
2022-10-16T01:21:24.977Z,34.30
2022-10-16T01:24:30.020Z,32.10
2022-10-16T01:27:22.734Z,32.80
2022-10-16T01:30:10.210Z,34.50
2022-10-16T01:32:51.758Z,34.90
2022-10-16T01:35:53.838Z,34.40
2022-10-16T01:39:06.575Z,33.10
2022-10-16T01:41:51.453Z,33.50
2022-10-16T01:47:57.660Z,31.20
2022-10-16T01:50:58.964Z,32.80
2022-10-16T01:54:02.652Z,30.40
2022-10-16T01:56:38.344Z,32.30
2022-10-16T01:59:36.608Z,30.90
2022-10-16T02:02:37.903Z,34.40
2022-10-16T02:13:03.450Z,33.90
2022-10-16T02:23:04.041Z,45.80
2022-10-16T02:25:48.958Z,43.90
2022-10-16T02:28:49.963Z,41.50
2022-10-16T02:31:30.500Z,41.40
2022-10-16T02:34:53.997Z,46.30
2022-10-16T02:38:19.154Z,45.10
2022-10-16T02:40:56.265Z,44.40
2022-10-16T02:47:21.606Z,45.00
2022-10-16T02:49:59.675Z,41.60
2022-10-16T02:52:36.839Z,38.00
2022-10-16T02:55:18.988Z,37.60
2022-10-16T02:58:00.919Z,37.70
2022-10-16T03:01:00.448Z,36.90
2022-10-16T03:03:59.105Z,39.90
2022-10-16T03:10:20.075Z,36.20
2022-10-16T03:13:00.685Z,44.80
2022-10-16T03:15:35.265Z,38.70
2022-10-16T03:18:32.310Z,39.20
2022-10-16T03:21:06.825Z,40.40
2022-10-16T03:24:30.781Z,37.80
2022-10-16T03:27:29.293Z,37.60
2022-10-16T03:34:18.876Z,41.70
2022-10-16T03:36:54.493Z,44.70
2022-10-16T03:42:57.608Z,45.40
2022-10-16T03:45:31.374Z,49.40
2022-10-16T03:48:05.658Z,50.80
2022-10-16T03:54:04.996Z,55.40
2022-10-16T03:57:28.012Z,58.30
2022-10-16T04:00:22.366Z,58.00
2022-10-16T04:03:05.145Z,60.30
2022-10-16T04:06:50.990Z,56.60
2022-10-16T04:09:49.831Z,56.50
2022-10-16T04:12:30.804Z,57.10
2022-10-16T04:15:51.334Z,56.50
2022-10-16T04:22:10.511Z,47.60
2022-10-16T04:24:47.295Z,48.00
2022-10-16T04:30:35.811Z,56.10
2022-10-16T04:33:17.172Z,55.10
2022-10-16T04:35:59.049Z,47.30
2022-10-16T04:38:39.902Z,48.80
2022-10-16T04:41:38.381Z,47.30
2022-10-16T04:54:28.649Z,45.20
2022-10-16T04:57:31.941Z,45.20
2022-10-16T05:00:05.348Z,44.30
2022-10-16T05:02:46.085Z,40.30
2022-10-16T05:05:51.428Z,46.80
2022-10-16T05:08:51.935Z,43.40
2022-10-16T05:15:35.254Z,42.70
2022-10-16T05:18:38.570Z,41.20
2022-10-16T05:21:22.096Z,43.50
2022-10-16T05:24:05.381Z,43.40
2022-10-16T05:27:31.234Z,49.40
2022-10-16T05:30:29.796Z,42.40
2022-10-16T05:33:33.102Z,57.60
2022-10-16T05:36:40.135Z,40.60
2022-10-16T05:39:36.987Z,39.90
2022-10-16T05:42:34.858Z,38.20
2022-10-16T05:45:41.799Z,37.40
2022-10-16T05:48:17.246Z,36.30
2022-10-16T05:54:01.833Z,35.90
2022-10-16T05:57:10.280Z,39.10
2022-10-16T05:59:47.127Z,36.40
2022-10-16T06:02:25.713Z,39.20
2022-10-16T06:05:05.336Z,37.60
2022-10-16T06:11:09.106Z,34.90
2022-10-16T06:14:13.117Z,36.60
2022-10-16T06:17:10.639Z,35.70
2022-10-16T06:20:12.326Z,35.50
2022-10-16T06:22:50.872Z,37.20
2022-10-16T06:25:25.662Z,36.20
2022-10-16T06:28:04.947Z,37.60
2022-10-16T06:31:04.173Z,37.00
2022-10-16T06:33:48.985Z,36.10
2022-10-16T06:36:23.800Z,37.00
2022-10-16T06:42:47.242Z,38.30
2022-10-16T06:45:47.816Z,34.80
2022-10-16T06:49:16.568Z,33.90
2022-10-16T06:51:57.113Z,37.60
2022-10-16T06:55:25.709Z,40.80
2022-10-16T06:58:01.460Z,37.00
2022-10-16T07:00:41.956Z,32.60
2022-10-16T07:03:48.185Z,33.80
2022-10-16T07:06:49.066Z,28.60
2022-10-16T07:09:26.990Z,28.00
2022-10-16T07:12:27.055Z,23.40
2022-10-16T07:15:29.103Z,22.70
2022-10-16T07:18:06.290Z,23.80
2022-10-16T07:23:47.760Z,28.90
2022-10-16T07:26:47.966Z,32.80
2022-10-16T07:29:25.502Z,28.10
2022-10-16T07:32:01.284Z,33.20
2022-10-16T07:37:59.887Z,19.90
2022-10-16T07:40:34.518Z,18.40
2022-10-16T07:43:09.227Z,21.00
2022-10-16T07:46:10.979Z,19.80
2022-10-16T07:49:10.732Z,18.90
2022-10-16T07:51:45.791Z,20.00
2022-10-16T07:54:46.347Z,19.60
2022-10-16T07:57:48.391Z,19.90
2022-10-16T08:00:27.555Z,18.00
2022-10-16T08:03:29.024Z,18.50
2022-10-16T08:06:07.471Z,18.90
2022-10-16T08:09:10.639Z,21.30
2022-10-16T08:12:06.932Z,18.60
2022-10-16T08:15:03.804Z,18.30
2022-10-16T08:17:38.570Z,14.90
2022-10-16T08:20:42.304Z,13.50
2022-10-16T08:23:44.128Z,11.10
2022-10-16T08:26:43.109Z,10.60
2022-10-16T08:29:18.302Z,12.20
2022-10-16T08:31:54.947Z,11.20
2022-10-16T08:34:31.434Z,11.30
2022-10-16T08:37:07.979Z,10.70
2022-10-16T08:39:45.492Z,11.50
2022-10-16T08:42:35.744Z,10.60
2022-10-16T08:45:24.154Z,10.10
2022-10-16T08:48:06.811Z,10.30
2022-10-16T08:51:08.375Z,10.20
2022-10-16T08:57:43.558Z,9.80
2022-10-16T09:00:28.802Z,9.70
2022-10-16T09:03:15.247Z,13.10
2022-10-16T09:07:00.254Z,9.80
2022-10-16T09:10:24.493Z,10.00
2022-10-16T09:13:25.587Z,10.00
2022-10-16T09:16:34.177Z,9.90
2022-10-16T09:23:08.126Z,10.30
2022-10-16T09:25:57.175Z,8.70
2022-10-16T09:28:34.040Z,9.10
2022-10-16T09:31:35.387Z,9.20
2022-10-16T09:34:16.551Z,11.90
2022-10-16T09:36:52.473Z,10.40
2022-10-16T09:39:53.082Z,9.00
2022-10-16T09:42:36.916Z,11.90
2022-10-16T09:45:26.945Z,13.00
2022-10-16T09:48:32.745Z,11.10
2022-10-16T09:51:22.335Z,10.50
2022-10-16T09:54:02.977Z,9.10
2022-10-16T10:00:25.049Z,9.40
2022-10-16T10:06:40.664Z,9.90
2022-10-16T10:09:32.283Z,9.70
2022-10-16T10:12:32.591Z,8.80
2022-10-16T10:15:43.063Z,9.20
2022-10-16T10:18:27.728Z,9.70
2022-10-16T10:21:51.215Z,8.10
2022-10-16T10:24:53.841Z,8.40
2022-10-16T10:31:17.406Z,7.90
2022-10-16T10:37:46.612Z,7.70
2022-10-16T10:40:41.195Z,9.50
2022-10-16T10:44:06.016Z,9.20
2022-10-16T10:47:09.390Z,11.40
2022-10-16T10:49:55.494Z,8.90
2022-10-16T10:52:53.718Z,8.00
2022-10-16T10:56:00.690Z,16.00
2022-10-16T11:06:56.470Z,8.10
2022-10-16T11:09:58.664Z,8.20
2022-10-16T11:12:39.869Z,17.60
2022-10-16T11:19:53.356Z,9.50
2022-10-16T11:22:42.275Z,8.70
2022-10-16T11:25:21.125Z,8.80
2022-10-16T11:28:47.243Z,7.70
2022-10-16T11:31:29.973Z,8.20
2022-10-16T11:34:34.117Z,8.50
2022-10-16T11:37:44.964Z,8.50
2022-10-16T11:40:30.883Z,11.20
2022-10-16T11:43:35.176Z,7.90
2022-10-16T11:46:22.629Z,7.50
2022-10-16T11:49:43.464Z,8.20
2022-10-16T11:52:49.481Z,8.90
2022-10-16T12:02:55.209Z,17.20
2022-10-16T12:12:49.396Z,7.90
2022-10-16T12:15:59.311Z,8.80
2022-10-16T12:18:34.923Z,7.90
2022-10-16T12:21:16.447Z,8.20
2022-10-16T12:27:40.063Z,9.00
2022-10-16T12:31:01.140Z,8.00
2022-10-16T12:34:22.499Z,8.30
2022-10-16T12:41:12.737Z,9.10
2022-10-16T12:44:12.415Z,8.30
2022-10-16T12:50:36.689Z,8.30
2022-10-16T12:53:25.430Z,8.20
2022-10-16T12:56:31.241Z,10.30
2022-10-16T12:59:31.306Z,8.50
2022-10-16T13:02:36.890Z,8.50
2022-10-16T13:05:31.396Z,10.60
2022-10-16T13:08:39.655Z,10.80
2022-10-16T13:11:29.537Z,20.80
2022-10-16T13:21:42.021Z,9.90
2022-10-16T13:25:02.972Z,11.70
2022-10-16T13:28:13.334Z,9.90
2022-10-16T13:31:15.575Z,12.00
2022-10-16T13:40:27.447Z,16.60
2022-10-16T13:43:28.049Z,11.20
2022-10-16T13:49:14.449Z,10.90
2022-10-16T13:52:43.086Z,10.50
2022-10-16T13:55:20.923Z,13.80
2022-10-16T14:04:55.090Z,12.00
2022-10-16T14:07:33.639Z,10.70
2022-10-16T14:17:23.360Z,11.30
2022-10-16T14:20:04.179Z,11.90
2022-10-16T14:23:31.929Z,9.60
2022-10-16T14:26:34.307Z,16.00
2022-10-16T14:29:17.359Z,11.00
2022-10-16T14:32:29.447Z,9.60
2022-10-16T14:35:08.445Z,14.20
2022-10-16T14:37:42.333Z,12.70
2022-10-16T14:44:10.101Z,12.50
2022-10-16T14:46:50.681Z,12.00
2022-10-16T14:49:30.382Z,12.50
2022-10-16T14:52:21.735Z,10.30
2022-10-16T14:55:19.107Z,15.70
2022-10-16T14:58:01.639Z,10.30
2022-10-16T15:00:40.143Z,17.20
2022-10-16T15:03:40.241Z,11.20
2022-10-16T15:06:19.044Z,10.10
2022-10-16T15:08:53.737Z,14.00
2022-10-16T15:11:51.376Z,28.40
2022-10-16T15:14:30.621Z,21.30
2022-10-16T15:17:31.292Z,38.80
2022-10-16T15:20:36.541Z,13.50
2022-10-16T15:23:16.929Z,12.10
2022-10-16T15:29:16.994Z,11.30
2022-10-16T15:31:49.328Z,17.60
2022-10-16T15:35:09.373Z,12.20
2022-10-16T15:38:10.507Z,12.10
2022-10-16T15:41:10.933Z,38.10
2022-10-16T15:43:49.286Z,13.90
2022-10-16T15:46:54.086Z,19.90
2022-10-16T15:49:55.055Z,18.10
2022-10-16T15:52:37.354Z,15.50
2022-10-16T15:55:14.206Z,18.30
2022-10-16T15:57:47.109Z,28.40
2022-10-16T16:00:28.426Z,19.50
2022-10-16T16:03:03.770Z,38.30
2022-10-16T16:05:41.759Z,40.90
2022-10-16T16:08:18.775Z,41.30
2022-10-16T16:11:02.409Z,51.90
2022-10-16T16:13:38.239Z,35.30
2022-10-16T16:16:18.020Z,46.30
2022-10-16T16:18:53.702Z,46.70
2022-10-16T16:22:37.237Z,44.30
2022-10-16T16:25:10.094Z,34.40
2022-10-16T16:28:34.308Z,44.50
2022-10-16T16:31:11.692Z,54.10
2022-10-16T16:33:45.623Z,63.70
2022-10-16T16:39:05.013Z,117.30
2022-10-16T16:41:38.151Z,116.80
2022-10-16T16:44:14.982Z,155.70
2022-10-16T16:47:36.110Z,41.80
2022-10-16T16:50:14.209Z,50.20
2022-10-16T16:52:46.225Z,133.50
2022-10-16T16:55:19.973Z,101.40
2022-10-16T16:57:59.326Z,49.60
2022-10-16T17:00:34.070Z,46.80
2022-10-16T17:03:34.411Z,57.50
2022-10-16T17:06:22.012Z,85.40
2022-10-16T17:09:26.609Z,153.60
2022-10-16T17:12:01.898Z,95.40
2022-10-16T17:14:38.161Z,74.40
2022-10-16T17:17:39.197Z,78.10
2022-10-16T17:20:20.182Z,68.90
2022-10-16T17:22:55.554Z,50.70
2022-10-16T17:25:32.012Z,40.30
2022-10-16T17:28:32.514Z,44.10
2022-10-16T17:31:54.959Z,44.10
2022-10-16T17:35:19.549Z,51.60
2022-10-16T17:37:51.308Z,70.30
2022-10-16T17:40:29.625Z,47.30
2022-10-16T17:43:06.592Z,43.30
2022-10-16T17:48:43.521Z,43.80
2022-10-16T17:51:18.100Z,95.20
2022-10-16T17:56:53.928Z,68.00
2022-10-16T17:59:30.665Z,35.60
2022-10-16T18:02:28.021Z,33.40
2022-10-16T18:05:01.365Z,34.40
2022-10-16T18:07:36.613Z,36.40
2022-10-16T18:10:20.968Z,34.80
2022-10-16T18:13:20.731Z,28.80
2022-10-16T18:16:27.964Z,26.40
2022-10-16T18:19:05.136Z,23.90
2022-10-16T18:21:43.291Z,31.10
2022-10-16T18:24:40.447Z,38.50
2022-10-16T18:27:14.528Z,42.50
2022-10-16T18:34:24.556Z,38.20
2022-10-16T18:41:11.491Z,27.70
2022-10-16T18:43:46.186Z,48.40
2022-10-16T18:46:25.060Z,47.60
2022-10-16T18:49:01.655Z,27.40
2022-10-16T18:52:27.408Z,35.20
2022-10-16T18:55:35.368Z,28.50
2022-10-16T19:01:17.990Z,28.70
2022-10-16T19:03:59.680Z,25.10
2022-10-16T19:10:25.922Z,31.00
2022-10-16T19:13:01.584Z,33.30
2022-10-16T19:16:09.321Z,36.30
2022-10-16T19:19:43.222Z,60.00
2022-10-16T19:22:29.067Z,42.10
2022-10-16T19:25:08.718Z,48.00
2022-10-16T19:27:48.804Z,41.80
2022-10-16T19:30:26.961Z,38.50
2022-10-16T19:33:09.002Z,31.70
2022-10-16T19:42:31.375Z,45.60
2022-10-16T19:45:03.593Z,37.50
2022-10-16T19:48:01.218Z,41.30
2022-10-16T19:51:00.351Z,40.40
2022-10-16T19:53:35.965Z,117.80
2022-10-16T19:56:34.246Z,146.40
2022-10-16T19:59:09.946Z,102.90
2022-10-16T20:01:53.807Z,69.60
2022-10-16T20:04:51.235Z,45.50
2022-10-16T20:07:37.809Z,55.90
2022-10-16T20:16:22.780Z,29.30
2022-10-16T20:22:44.280Z,34.60
2022-10-16T20:25:19.104Z,31.60
2022-10-16T20:28:21.616Z,35.50
2022-10-16T20:31:52.551Z,35.90
2022-10-16T20:35:16.209Z,32.60
2022-10-16T20:37:51.168Z,32.50
2022-10-16T20:40:31.942Z,31.40
2022-10-16T20:50:03.849Z,29.70
2022-10-16T20:52:38.056Z,30.30
2022-10-16T20:55:12.698Z,30.20
2022-10-16T20:57:48.894Z,29.90
2022-10-16T21:00:23.411Z,32.10
2022-10-16T21:02:59.160Z,30.80
2022-10-16T21:05:34.976Z,31.00
2022-10-16T21:08:07.653Z,31.00
2022-10-16T21:10:41.023Z,33.90
2022-10-16T21:13:15.241Z,34.30
2022-10-16T21:15:49.922Z,35.20
2022-10-16T21:18:22.500Z,38.90
2022-10-16T21:20:54.900Z,35.40
2022-10-16T21:23:27.032Z,29.90
2022-10-16T21:26:03.092Z,29.90
2022-10-16T21:28:36.041Z,39.80
2022-10-16T21:31:15.759Z,44.10
2022-10-16T21:33:48.765Z,42.60
2022-10-16T21:36:26.293Z,42.50
2022-10-16T21:39:05.700Z,64.00
2022-10-16T21:41:44.921Z,47.10
2022-10-16T21:44:20.255Z,45.40
2022-10-16T21:46:54.389Z,42.20
2022-10-16T21:49:28.453Z,39.30
2022-10-16T21:52:00.460Z,45.20
2022-10-16T21:54:32.614Z,42.10
2022-10-16T21:57:08.461Z,39.80
2022-10-16T21:59:42.191Z,38.10
2022-10-16T22:02:15.252Z,40.40
2022-10-16T22:04:47.281Z,39.20
2022-10-16T22:07:20.214Z,36.10
2022-10-16T22:09:54.923Z,37.10
2022-10-16T22:12:28.013Z,37.10
2022-10-16T22:15:08.508Z,34.00
2022-10-16T22:17:42.367Z,37.50
2022-10-16T22:20:15.486Z,38.60
2022-10-16T22:22:48.240Z,37.20
2022-10-16T22:25:20.651Z,37.10
2022-10-16T22:27:54.563Z,38.40
2022-10-16T22:30:27.678Z,37.80
2022-10-16T22:33:00.479Z,38.10
2022-10-16T22:35:32.833Z,35.30
2022-10-16T22:38:05.086Z,36.10
2022-10-16T22:40:41.238Z,38.20
2022-10-16T22:43:14.770Z,37.60
2022-10-16T22:45:49.465Z,36.40
2022-10-16T22:48:22.638Z,36.20
2022-10-16T22:50:57.296Z,42.50
2022-10-16T22:53:30.591Z,50.60
2022-10-16T22:56:02.847Z,59.90
2022-10-16T22:58:35.611Z,43.60
2022-10-16T23:01:13.210Z,44.50
2022-10-16T23:03:46.127Z,40.10
2022-10-16T23:06:19.294Z,43.00
2022-10-16T23:08:55.528Z,45.50
2022-10-16T23:11:28.585Z,43.20
2022-10-16T23:14:01.407Z,43.30
2022-10-16T23:16:35.579Z,42.70
2022-10-16T23:21:43.722Z,37.20
2022-10-16T23:24:18.418Z,39.60
2022-10-16T23:26:51.279Z,39.20
2022-10-16T23:29:23.408Z,39.50
2022-10-16T23:31:59.440Z,42.70
2022-10-16T23:34:32.209Z,45.60
2022-10-16T23:37:06.733Z,44.90
2022-10-16T23:39:41.660Z,47.10
2022-10-16T23:42:13.935Z,46.10
2022-10-16T23:44:48.321Z,47.80
2022-10-16T23:47:21.203Z,44.60
2022-10-16T23:49:57.200Z,45.70
2022-10-16T23:52:29.419Z,44.60
2022-10-16T23:55:03.100Z,44.70
2022-10-16T23:57:35.666Z,49.00
